Hernandez Aguado — EA5493 — position and weather

sailwx.info

Track history (hours):
 
Tides and Currents Weather Stations Pressure Air Temp Water Temp Dewpoint Dewpoint Depression Visibility Wind Speed Wind Dir Waves Ship Positions

Hernandez Aguado

Last reported at 2018-Jan-18 15:29 UTC. Time now 2018-Jan-19 07:55 UTC.
Position N 37°32' W 000°57'.

Length 22 m; draft 2 m.

Type: Fishing. MMSI: 224064450.

Date/timePositionNaut miles runAvg speedWind from/ knotsBaromVisibWave heightAir tempDewpointWater temp
2018-Jan-18 15:29N 37°32' W 000°57'2 0.4
2018-Jan-18 09:55N 37°30' W 000°58'1 3.0
2018-Jan-18 09:26N 37°30' W 000°56'2 2.9
2018-Jan-18 08:53N 37°30' W 000°54'1 1.4
2018-Jan-18 08:09N 37°30' W 000°53'0 0.9
2018-Jan-18 07:41N 37°30' W 000°54'0 2.7
2018-Jan-18 07:30N 37°30' W 000°54'1 2.7
2018-Jan-18 06:59N 37°30' W 000°56'  
2018-Jan-12 09:33N 37°30' W 000°56'0 3.0
2018-Jan-12 09:26N 37°30' W 000°56'1 3.0
2018-Jan-12 08:58N 37°30' W 000°54'2 3.2
2018-Jan-12 08:29N 37°30' W 000°52'5 0.2
2018-Jan-11 09:59N 37°30' W 000°58'1 2.9
2018-Jan-11 09:29N 37°30' W 000°56'2 2.8
2018-Jan-11 08:53N 37°30' W 000°54'2 2.9
2018-Jan-11 08:19N 37°30' W 000°52'6 0.4
2018-Jan-10 14:58N 37°33' W 000°59'4 3.0
2018-Jan-10 13:46N 37°30' W 000°58'1 0.3
2018-Jan-10 09:10N 37°30' W 000°56'1 1.1
2018-Jan-10 07:59N 37°30' W 000°55'3 0.2
2018-Jan-09 16:48N 37°33' W 000°55'310.7
2018-Jan-09 16:30N 37°34' W 000°51'510.3
2018-Jan-09 15:59N 37°35' W 000°44'510.3
2018-Jan-09 15:30N 37°35' W 000°38'8 5.6
2018-Jan-09 14:08N 37°36' W 000°28'1 2.8
2018-Jan-09 13:42N 37°37' W 000°27'1 2.9
2018-Jan-09 13:28N 37°37' W 000°26'6 2.9
2018-Jan-09 11:20N 37°42' W 000°22'12 2.0
2018-Jan-09 05:34N 37°35' W 000°34'111.7
2018-Jan-09 05:30N 37°35' W 000°35'611.9
2018-Jan-09 05:00N 37°34' W 000°42'711.8
2018-Jan-09 04:26N 37°33' W 000°51'4 0.4
2018-Jan-08 16:48N 37°33' W 000°56'411.1
2018-Jan-08 16:27N 37°34' W 000°52'510.4
2018-Jan-08 16:00N 37°34' W 000°46'510.2
2018-Jan-08 15:30N 37°35' W 000°39'  
Track history (hours):
 
Tides and Currents Weather Stations Pressure Air Temp Water Temp Dewpoint Dewpoint Depression Visibility Wind Speed Wind Dir Waves Ship Positions

Hernandez Aguado

Last reported at 2018-Jan-18 15:29 UTC. Time now 2018-Jan-19 07:55 UTC.
Position N 37°32' W 000°57'.

Length 22 m; draft 2 m.

Type: Fishing. MMSI: 224064450.

Date/timePositionNaut miles runAvg speedWind from/ knotsBaromVisibWave heightAir tempDewpointWater temp
2018-Jan-18 15:29N 37°32' W 000°57'2 0.4
2018-Jan-18 09:55N 37°30' W 000°58'1 3.0
2018-Jan-18 09:26N 37°30' W 000°56'2 2.9
2018-Jan-18 08:53N 37°30' W 000°54'1 1.4
2018-Jan-18 08:09N 37°30' W 000°53'0 0.9
2018-Jan-18 07:41N 37°30' W 000°54'0 2.7
2018-Jan-18 07:30N 37°30' W 000°54'1 2.7
2018-Jan-18 06:59N 37°30' W 000°56'  
2018-Jan-12 09:33N 37°30' W 000°56'0 3.0
2018-Jan-12 09:26N 37°30' W 000°56'1 3.0
2018-Jan-12 08:58N 37°30' W 000°54'2 3.2
2018-Jan-12 08:29N 37°30' W 000°52'5 0.2
2018-Jan-11 09:59N 37°30' W 000°58'1 2.9
2018-Jan-11 09:29N 37°30' W 000°56'2 2.8
2018-Jan-11 08:53N 37°30' W 000°54'2 2.9
2018-Jan-11 08:19N 37°30' W 000°52'6 0.4
2018-Jan-10 14:58N 37°33' W 000°59'4 3.0
2018-Jan-10 13:46N 37°30' W 000°58'1 0.3
2018-Jan-10 09:10N 37°30' W 000°56'1 1.1
2018-Jan-10 07:59N 37°30' W 000°55'3 0.2
2018-Jan-09 16:48N 37°33' W 000°55'310.7
2018-Jan-09 16:30N 37°34' W 000°51'510.3
2018-Jan-09 15:59N 37°35' W 000°44'510.3
2018-Jan-09 15:30N 37°35' W 000°38'8 5.6
2018-Jan-09 14:08N 37°36' W 000°28'1 2.8
2018-Jan-09 13:42N 37°37' W 000°27'1 2.9
2018-Jan-09 13:28N 37°37' W 000°26'6 2.9
2018-Jan-09 11:20N 37°42' W 000°22'12 2.0
2018-Jan-09 05:34N 37°35' W 000°34'111.7
2018-Jan-09 05:30N 37°35' W 000°35'611.9
2018-Jan-09 05:00N 37°34' W 000°42'711.8
2018-Jan-09 04:26N 37°33' W 000°51'4 0.4
2018-Jan-08 16:48N 37°33' W 000°56'411.1
2018-Jan-08 16:27N 37°34' W 000°52'510.4
2018-Jan-08 16:00N 37°34' W 000°46'510.2
2018-Jan-08 15:30N 37°35' W 000°39'  

Dump ship's entire track history